createdAt,value
2024-05-09T00:00:29.894Z,100.00
2024-05-09T00:03:36.703Z,100.00
2024-05-09T00:06:38.306Z,100.00
2024-05-09T00:09:39.791Z,100.00
2024-05-09T00:12:41.330Z,100.00
2024-05-09T00:15:42.843Z,100.00
2024-05-09T00:18:44.508Z,100.00
2024-05-09T00:21:46.137Z,100.00
2024-05-09T00:24:47.638Z,100.00
2024-05-09T00:27:49.147Z,100.00
2024-05-09T00:30:50.691Z,100.00
2024-05-09T00:33:53.249Z,100.00
2024-05-09T00:36:54.832Z,100.00
2024-05-09T00:39:56.360Z,100.00
2024-05-09T00:42:57.858Z,100.00
2024-05-09T00:45:59.600Z,100.00
2024-05-09T00:49:01.302Z,100.00
2024-05-09T00:52:02.853Z,100.00
2024-05-09T00:55:04.415Z,100.00
2024-05-09T00:58:06.025Z,100.00
2024-05-09T01:01:07.816Z,100.00
2024-05-09T01:04:09.916Z,100.00
2024-05-09T01:07:11.480Z,100.00
2024-05-09T01:10:17.446Z,100.00
2024-05-09T01:13:25.506Z,100.00
2024-05-09T01:16:26.971Z,100.00
2024-05-09T01:19:28.887Z,100.00
2024-05-09T01:22:30.516Z,100.00
2024-05-09T01:25:33.006Z,100.00
2024-05-09T01:28:34.545Z,100.00
2024-05-09T01:31:36.108Z,100.00
2024-05-09T01:34:37.590Z,100.00
2024-05-09T01:37:40.331Z,100.00
2024-05-09T01:40:42.557Z,100.00
2024-05-09T01:43:44.087Z,100.00
2024-05-09T01:46:45.724Z,100.00
2024-05-09T01:49:47.260Z,100.00
2024-05-09T01:52:51.762Z,100.00
2024-05-09T01:55:53.416Z,100.00
2024-05-09T01:58:55.017Z,100.00
2024-05-09T02:01:57.790Z,100.00
2024-05-09T02:04:59.632Z,100.00
2024-05-09T02:08:01.360Z,100.00
2024-05-09T02:11:03.110Z,100.00
2024-05-09T02:14:04.812Z,100.00
2024-05-09T02:17:06.315Z,100.00
2024-05-09T02:20:13.102Z,100.00
2024-05-09T02:23:18.333Z,100.00
2024-05-09T02:26:19.970Z,100.00
2024-05-09T02:29:21.622Z,100.00
2024-05-09T02:32:23.200Z,100.00
2024-05-09T02:35:25.086Z,100.00
2024-05-09T02:38:26.696Z,100.00
2024-05-09T02:41:28.358Z,100.00
2024-05-09T02:44:30.045Z,100.00
2024-05-09T02:47:31.746Z,100.00
2024-05-09T02:50:38.329Z,100.00
2024-05-09T02:53:41.479Z,100.00
2024-05-09T02:56:43.052Z,100.00
2024-05-09T02:59:44.596Z,100.00
2024-05-09T03:02:46.207Z,100.00
2024-05-09T03:05:47.965Z,100.00
2024-05-09T03:08:49.607Z,100.00
2024-05-09T03:11:51.773Z,100.00
2024-05-09T03:14:53.369Z,100.00
2024-05-09T03:17:55.035Z,100.00
2024-05-09T03:20:56.631Z,100.00
2024-05-09T03:23:58.175Z,100.00
2024-05-09T03:26:59.664Z,100.00
2024-05-09T03:30:01.145Z,100.00
2024-05-09T03:33:02.795Z,100.00
2024-05-09T03:36:06.894Z,100.00
2024-05-09T03:39:10.989Z,100.00
2024-05-09T03:42:12.562Z,100.00
2024-05-09T03:45:14.106Z,100.00
2024-05-09T03:48:15.941Z,100.00
2024-05-09T03:51:17.588Z,100.00
2024-05-09T03:54:19.243Z,100.00
2024-05-09T03:57:20.740Z,100.00
2024-05-09T04:00:30.891Z,100.00
2024-05-09T04:03:39.694Z,100.00
2024-05-09T04:06:43.102Z,100.00
2024-05-09T04:09:44.579Z,100.00
2024-05-09T04:12:46.081Z,100.00
2024-05-09T04:15:47.600Z,100.00
2024-05-09T04:18:49.450Z,100.00
2024-05-09T04:21:51.028Z,100.00
2024-05-09T04:24:52.925Z,100.00
2024-05-09T04:27:55.935Z,100.00
2024-05-09T04:30:57.434Z,100.00
2024-05-09T04:33:59.054Z,100.00
2024-05-09T04:37:00.844Z,100.00
2024-05-09T04:40:02.366Z,100.00
2024-05-09T04:43:07.191Z,100.00
2024-05-09T04:46:09.086Z,100.00
2024-05-09T04:49:10.720Z,100.00
2024-05-09T04:52:12.295Z,100.00
2024-05-09T04:55:13.797Z,100.00
2024-05-09T04:58:15.496Z,100.00
2024-05-09T05:01:17.034Z,100.00
2024-05-09T05:04:18.569Z,100.00
2024-05-09T05:07:20.172Z,100.00
2024-05-09T05:10:29.428Z,100.00
2024-05-09T05:13:38.628Z,100.00
2024-05-09T05:16:41.660Z,100.00
2024-05-09T05:19:43.273Z,100.00
2024-05-09T05:22:44.854Z,100.00
2024-05-09T05:25:49.831Z,100.00
2024-05-09T05:28:51.731Z,100.00
2024-05-09T05:31:53.441Z,100.00
2024-05-09T05:34:55.006Z,100.00
2024-05-09T05:37:56.662Z,100.00
2024-05-09T05:40:58.228Z,100.00
2024-05-09T05:43:59.770Z,100.00
2024-05-09T05:47:01.509Z,100.00
2024-05-09T05:50:05.195Z,100.00
2024-05-09T05:53:09.356Z,100.00
2024-05-09T05:56:11.801Z,100.00
2024-05-09T05:59:15.025Z,100.00
2024-05-09T06:02:16.908Z,100.00
2024-05-09T06:05:18.555Z,100.00
2024-05-09T06:08:20.144Z,100.00
2024-05-09T06:11:21.788Z,100.00
2024-05-09T06:14:23.513Z,100.00
2024-05-09T06:17:25.205Z,100.00
2024-05-09T06:20:34.852Z,100.00
2024-05-09T06:23:48.252Z,100.00
2024-05-09T06:26:49.810Z,100.00
2024-05-09T06:29:51.326Z,100.00
2024-05-09T06:32:53.018Z,100.00
2024-05-09T06:35:59.248Z,100.00
2024-05-09T06:39:00.761Z,100.00
2024-05-09T06:42:02.267Z,100.00
2024-05-09T06:45:03.805Z,100.00
2024-05-09T06:48:05.862Z,100.00
2024-05-09T06:51:07.464Z,100.00
2024-05-09T06:54:08.973Z,100.00
2024-05-09T06:57:10.534Z,100.00
2024-05-09T07:00:15.684Z,100.00
2024-05-09T07:03:23.929Z,100.00
2024-05-09T07:06:25.592Z,100.00
2024-05-09T07:09:27.071Z,100.00
2024-05-09T07:12:28.687Z,100.00
2024-05-09T07:15:30.534Z,100.00
2024-05-09T07:18:32.093Z,100.00
2024-05-09T07:21:33.720Z,100.00
2024-05-09T07:24:35.641Z,100.00
2024-05-09T07:27:37.128Z,100.00
2024-05-09T07:30:38.648Z,100.00
2024-05-09T07:33:40.275Z,100.00
2024-05-09T07:36:42.069Z,100.00
2024-05-09T07:39:43.689Z,100.00
2024-05-09T07:42:46.125Z,100.00
2024-05-09T07:45:52.889Z,100.00
2024-05-09T07:50:35.360Z,100.00
2024-05-09T07:55:22.902Z,100.00
2024-05-09T07:58:27.772Z,100.00
2024-05-09T08:01:29.591Z,100.00
2024-05-09T08:04:31.419Z,100.00
2024-05-09T08:07:35.199Z,100.00
2024-05-09T08:10:36.860Z,100.00
2024-05-09T08:13:38.387Z,100.00
2024-05-09T08:16:39.881Z,100.00
2024-05-09T08:19:42.018Z,100.00
2024-05-09T08:22:43.574Z,100.00
2024-05-09T08:25:45.092Z,100.00
2024-05-09T08:28:46.772Z,100.00
2024-05-09T08:31:48.335Z,100.00
2024-05-09T08:34:50.053Z,100.00
2024-05-09T08:37:53.429Z,100.00
2024-05-09T08:40:55.075Z,100.00
2024-05-09T08:43:56.589Z,100.00
2024-05-09T08:46:58.159Z,100.00
2024-05-09T08:50:00.609Z,100.00
2024-05-09T08:53:02.418Z,100.00
2024-05-09T08:56:04.075Z,100.00
2024-05-09T08:59:06.583Z,100.00
2024-05-09T09:02:08.290Z,100.00
2024-05-09T09:05:17.004Z,100.00
2024-05-09T09:08:18.647Z,100.00
2024-05-09T09:11:20.156Z,100.00
2024-05-09T09:14:21.668Z,99.11
2024-05-09T09:17:23.283Z,98.10
2024-05-09T09:20:35.401Z,100.00
2024-05-09T09:23:41.448Z,99.36
2024-05-09T09:26:44.741Z,96.22
2024-05-09T09:29:46.274Z,95.02
2024-05-09T09:32:49.011Z,94.62
2024-05-09T09:35:50.585Z,91.18
2024-05-09T09:38:52.081Z,87.66
2024-05-09T09:41:54.507Z,88.27
2024-05-09T09:45:04.280Z,91.34
2024-05-09T09:48:07.508Z,90.38
2024-05-09T09:51:09.210Z,93.77
2024-05-09T09:54:10.697Z,90.39
2024-05-09T09:57:12.207Z,88.78
2024-05-09T10:00:20.702Z,89.90
2024-05-09T10:03:26.005Z,88.50
2024-05-09T10:06:27.685Z,87.16
2024-05-09T10:09:29.269Z,80.56
2024-05-09T10:12:30.914Z,81.88
2024-05-09T10:15:52.990Z,81.25
2024-05-09T10:18:55.035Z,76.46
2024-05-09T10:22:06.134Z,77.95
2024-05-09T10:25:07.949Z,79.81
2024-05-09T10:28:12.687Z,84.46
2024-05-09T10:31:15.448Z,85.71
2024-05-09T10:34:18.120Z,82.69
2024-05-09T10:37:19.891Z,82.14
2024-05-09T10:40:26.594Z,85.01
2024-05-09T10:43:32.709Z,85.25
2024-05-09T10:46:34.226Z,91.52
2024-05-09T10:49:35.848Z,88.54
2024-05-09T10:52:37.409Z,92.20
2024-05-09T10:55:38.914Z,89.63
2024-05-09T10:58:40.483Z,91.83
2024-05-09T11:01:42.376Z,87.59
2024-05-09T11:04:45.282Z,87.42
2024-05-09T11:07:46.841Z,80.15
2024-05-09T11:10:48.994Z,81.45
2024-05-09T11:13:50.597Z,74.63
2024-05-09T11:17:01.221Z,78.52
2024-05-09T11:20:08.125Z,80.09
2024-05-09T11:23:12.455Z,77.50
2024-05-09T11:26:15.307Z,76.65
2024-05-09T11:29:19.511Z,76.17
2024-05-09T11:32:28.450Z,78.93
2024-05-09T11:35:30.936Z,82.54
2024-05-09T11:38:33.971Z,82.95
2024-05-09T11:41:35.977Z,88.17
2024-05-09T11:44:37.498Z,87.36
2024-05-09T11:47:41.271Z,72.16
2024-05-09T11:50:42.919Z,70.09
2024-05-09T11:53:44.416Z,65.24
2024-05-09T11:56:45.949Z,63.34
2024-05-09T11:59:47.430Z,71.82
2024-05-09T12:02:49.043Z,65.64
2024-05-09T12:05:50.656Z,67.07
2024-05-09T12:08:52.197Z,74.90
2024-05-09T12:11:53.789Z,72.38
2024-05-09T12:14:55.280Z,70.76
2024-05-09T12:17:58.993Z,75.06
2024-05-09T12:21:02.784Z,64.29
2024-05-09T12:24:04.253Z,62.74
2024-05-09T12:27:05.756Z,65.88
2024-05-09T12:30:11.289Z,63.65
2024-05-09T12:33:13.836Z,70.77
2024-05-09T12:36:15.673Z,68.50
2024-05-09T12:39:17.164Z,70.14
2024-05-09T12:42:26.743Z,68.87
2024-05-09T12:45:29.641Z,62.02
2024-05-09T12:48:31.314Z,58.48
2024-05-09T12:51:32.952Z,59.00
2024-05-09T12:54:34.615Z,60.67
2024-05-09T12:57:36.166Z,56.11
2024-05-09T13:00:37.782Z,52.58
2024-05-09T13:03:39.551Z,49.13
2024-05-09T13:06:41.416Z,52.16
2024-05-09T13:09:42.972Z,58.64
2024-05-09T13:12:44.526Z,64.66
2024-05-09T13:15:46.029Z,58.15
2024-05-09T13:18:47.698Z,63.32
2024-05-09T13:21:49.324Z,64.84
2024-05-09T13:24:50.877Z,66.43
2024-05-09T13:27:52.475Z,73.18
2024-05-09T13:30:54.143Z,64.76
2024-05-09T13:33:55.739Z,64.25
2024-05-09T13:36:57.289Z,56.00
2024-05-09T13:39:59.392Z,50.27
2024-05-09T13:43:01.889Z,46.57
2024-05-09T13:46:03.561Z,42.06
2024-05-09T13:49:05.596Z,47.54
2024-05-09T13:52:07.901Z,53.87
2024-05-09T13:55:09.684Z,59.74
2024-05-09T13:58:11.266Z,61.70
2024-05-09T14:01:12.880Z,64.33
2024-05-09T14:04:14.697Z,59.54
2024-05-09T14:07:16.507Z,62.00
2024-05-09T14:10:23.361Z,55.99
2024-05-09T14:13:30.202Z,56.27
2024-05-09T14:16:31.779Z,61.69
2024-05-09T14:19:33.382Z,58.01
2024-05-09T14:22:35.560Z,59.60
2024-05-09T14:25:41.849Z,58.80
2024-05-09T14:28:44.883Z,61.20
2024-05-09T14:31:47.351Z,64.42
2024-05-09T14:34:49.012Z,66.68
2024-05-09T14:37:50.549Z,66.53
2024-05-09T14:40:52.161Z,68.49
2024-05-09T14:43:53.676Z,64.93
2024-05-09T14:46:55.231Z,65.79
2024-05-09T14:49:56.721Z,71.06
2024-05-09T14:52:58.300Z,62.88
2024-05-09T14:55:59.879Z,69.62
2024-05-09T14:59:01.351Z,66.98
2024-05-09T15:02:02.919Z,65.86
2024-05-09T15:05:04.785Z,65.24
2024-05-09T15:08:06.967Z,67.92
2024-05-09T15:11:08.692Z,74.10
2024-05-09T15:14:10.254Z,71.84
2024-05-09T15:17:11.763Z,66.79
2024-05-09T15:20:17.309Z,66.89
2024-05-09T15:23:21.954Z,68.48
2024-05-09T15:26:23.412Z,64.98
2024-05-09T15:29:26.125Z,67.96
2024-05-09T15:32:29.524Z,68.94
2024-05-09T15:35:31.220Z,68.95
2024-05-09T15:38:32.784Z,68.33
2024-05-09T15:41:34.257Z,72.52
2024-05-09T15:44:35.871Z,73.42
2024-05-09T15:47:38.029Z,75.51
2024-05-09T15:50:41.812Z,72.71
2024-05-09T15:53:44.249Z,74.78
2024-05-09T15:56:48.943Z,76.13
2024-05-09T15:59:50.942Z,74.99
2024-05-09T16:02:52.622Z,71.77
2024-05-09T16:10:06.836Z,74.98
2024-05-09T16:13:08.692Z,73.49
2024-05-09T16:16:10.523Z,70.68
2024-05-09T16:19:12.218Z,72.96
2024-05-09T16:22:13.869Z,70.86
2024-05-09T16:25:15.572Z,71.69
2024-05-09T16:28:26.867Z,72.60
2024-05-09T16:31:28.699Z,71.58
2024-05-09T16:34:30.284Z,74.37
2024-05-09T16:37:31.869Z,77.64
2024-05-09T16:40:38.216Z,75.21
2024-05-09T16:43:42.131Z,79.02
2024-05-09T16:46:43.622Z,74.79
2024-05-09T16:49:45.414Z,76.54
2024-05-09T16:52:46.967Z,77.55
2024-05-09T16:55:48.629Z,73.86
2024-05-09T16:58:50.189Z,72.59
2024-05-09T17:01:51.861Z,74.29
2024-05-09T17:04:53.610Z,77.41
2024-05-09T17:07:55.568Z,80.40
2024-05-09T17:10:57.220Z,86.82
2024-05-09T17:13:58.803Z,88.43
2024-05-09T17:17:00.371Z,89.82
2024-05-09T17:20:01.977Z,93.28
2024-05-09T17:23:03.898Z,91.98
2024-05-09T17:26:05.556Z,91.98
2024-05-09T17:29:09.346Z,90.17
2024-05-09T17:32:13.336Z,94.65
2024-05-09T17:35:15.074Z,95.19
2024-05-09T17:38:16.573Z,97.12
2024-05-09T17:41:20.824Z,100.00
2024-05-09T17:44:22.334Z,97.98
2024-05-09T17:47:24.041Z,100.00
2024-05-09T17:50:31.622Z,100.00
2024-05-09T17:53:37.080Z,96.87
2024-05-09T17:56:38.558Z,98.45
2024-05-09T17:59:40.062Z,100.00
2024-05-09T18:02:41.601Z,100.00
2024-05-09T18:05:44.433Z,100.00
2024-05-09T18:08:46.630Z,100.00
2024-05-09T18:11:48.378Z,100.00
2024-05-09T18:14:49.902Z,100.00
2024-05-09T18:17:51.595Z,100.00
2024-05-09T18:20:53.125Z,100.00
2024-05-09T18:23:57.439Z,100.00
2024-05-09T18:27:00.281Z,100.00
2024-05-09T18:30:01.819Z,100.00
2024-05-09T18:33:04.307Z,100.00
2024-05-09T18:36:06.997Z,100.00
2024-05-09T18:39:08.780Z,100.00
2024-05-09T18:42:10.254Z,100.00
2024-05-09T18:45:11.962Z,100.00
2024-05-09T18:48:13.620Z,100.00
2024-05-09T18:51:15.210Z,100.00
2024-05-09T18:54:16.766Z,100.00
2024-05-09T18:57:18.291Z,100.00
2024-05-09T19:00:31.085Z,100.00
2024-05-09T19:03:37.432Z,100.00
2024-05-09T19:06:39.049Z,100.00
2024-05-09T19:09:40.904Z,100.00
2024-05-09T19:12:42.443Z,100.00
2024-05-09T19:15:44.638Z,100.00
2024-05-09T19:18:46.498Z,100.00
2024-05-09T19:21:48.139Z,100.00
2024-05-09T19:24:49.689Z,100.00
2024-05-09T19:27:51.326Z,100.00
2024-05-09T19:30:53.111Z,100.00
2024-05-09T19:33:54.689Z,100.00
2024-05-09T19:36:56.306Z,100.00
2024-05-09T19:39:57.956Z,100.00
2024-05-09T19:42:59.733Z,100.00
2024-05-09T19:46:01.308Z,100.00
2024-05-09T19:49:05.425Z,100.00
2024-05-09T19:52:07.241Z,100.00
2024-05-09T19:55:09.249Z,100.00
2024-05-09T19:58:11.607Z,100.00
2024-05-09T20:01:14.083Z,100.00
2024-05-09T20:04:15.714Z,100.00
2024-05-09T20:07:20.115Z,100.00
2024-05-09T20:10:24.159Z,100.00
2024-05-09T20:13:31.065Z,100.00
2024-05-09T20:16:32.698Z,100.00
2024-05-09T20:19:34.460Z,100.00
2024-05-09T20:22:36.072Z,100.00
2024-05-09T20:25:37.677Z,100.00
2024-05-09T20:28:39.189Z,100.00
2024-05-09T20:31:41.265Z,100.00
2024-05-09T20:34:43.204Z,100.00
2024-05-09T20:37:44.685Z,100.00
2024-05-09T20:40:46.228Z,100.00
2024-05-09T20:43:47.784Z,100.00
2024-05-09T20:46:49.298Z,100.00
2024-05-09T20:49:51.193Z,100.00
2024-05-09T20:52:52.740Z,100.00
2024-05-09T20:55:54.224Z,100.00
2024-05-09T20:58:55.742Z,100.00
2024-05-09T21:01:57.378Z,100.00
2024-05-09T21:04:59.015Z,100.00
2024-05-09T21:08:00.773Z,100.00
2024-05-09T21:11:02.592Z,100.00
2024-05-09T21:14:04.165Z,100.00
2024-05-09T21:17:05.860Z,100.00
2024-05-09T21:20:11.500Z,100.00
2024-05-09T21:23:18.359Z,100.00
2024-05-09T21:26:23.057Z,100.00
2024-05-09T21:29:24.615Z,100.00
2024-05-09T21:32:26.258Z,100.00
2024-05-09T21:35:27.891Z,100.00
2024-05-09T21:38:29.446Z,100.00
2024-05-09T21:41:30.955Z,100.00
2024-05-09T21:44:32.572Z,100.00
2024-05-09T21:47:34.457Z,100.00
2024-05-09T21:50:40.524Z,100.00
2024-05-09T21:53:43.705Z,100.00
2024-05-09T21:56:45.227Z,100.00
2024-05-09T21:59:47.492Z,100.00
2024-05-09T22:02:49.093Z,100.00
2024-05-09T22:05:51.037Z,100.00
2024-05-09T22:08:52.657Z,100.00
2024-05-09T22:11:54.528Z,100.00
2024-05-09T22:14:56.112Z,100.00
2024-05-09T22:17:57.932Z,100.00
2024-05-09T22:20:59.507Z,100.00
2024-05-09T22:24:01.255Z,100.00
2024-05-09T22:27:02.994Z,100.00
2024-05-09T22:30:09.080Z,100.00
2024-05-09T22:33:13.414Z,100.00
2024-05-09T22:36:14.996Z,100.00
2024-05-09T22:39:17.703Z,100.00
2024-05-09T22:42:19.348Z,100.00
2024-05-09T22:45:20.879Z,100.00
2024-05-09T22:48:23.651Z,100.00
2024-05-09T22:51:25.877Z,100.00
2024-05-09T22:54:27.404Z,100.00
2024-05-09T22:57:28.940Z,100.00
2024-05-09T23:00:32.371Z,100.00
2024-05-09T23:03:34.903Z,100.00
2024-05-09T23:06:39.928Z,100.00
2024-05-09T23:09:41.565Z,100.00
2024-05-09T23:12:43.165Z,100.00
2024-05-09T23:15:44.758Z,100.00
2024-05-09T23:18:46.449Z,100.00
2024-05-09T23:21:48.220Z,100.00
2024-05-09T23:24:49.762Z,100.00
2024-05-09T23:27:51.350Z,100.00
2024-05-09T23:30:52.926Z,100.00
2024-05-09T23:33:55.187Z,100.00
2024-05-09T23:36:56.971Z,100.00
2024-05-09T23:39:58.765Z,100.00
2024-05-09T23:43:00.360Z,100.00
2024-05-09T23:46:02.189Z,100.00
2024-05-09T23:49:03.876Z,100.00
2024-05-09T23:52:05.609Z,100.00
2024-05-09T23:55:07.284Z,100.00
2024-05-09T23:58:09.284Z,100.00
